createdAt,value
2022-12-08T11:22:28.843Z,8.07
2022-12-08T11:25:31.351Z,10.07
2022-12-08T11:28:33.504Z,9.82
2022-12-08T11:31:44.014Z,11.00
2022-12-08T11:35:07.554Z,8.82
2022-12-08T11:38:23.363Z,9.37
2022-12-08T11:42:07.698Z,10.13
2022-12-08T11:45:30.542Z,8.40
2022-12-08T11:48:42.447Z,10.40
2022-12-08T11:51:51.551Z,9.13
2022-12-08T11:55:17.511Z,11.15
2022-12-08T11:58:29.405Z,10.75
2022-12-08T12:01:31.341Z,9.90
2022-12-08T12:07:26.479Z,8.70
2022-12-08T12:12:13.696Z,9.52
2022-12-08T12:15:21.667Z,9.80
2022-12-08T12:18:24.948Z,10.43
2022-12-08T12:21:38.104Z,10.70
2022-12-08T12:24:44.913Z,10.20
2022-12-08T12:27:57.319Z,10.15
2022-12-08T12:31:06.557Z,10.02
2022-12-08T12:34:20.116Z,11.90
2022-12-08T12:37:45.276Z,10.75
2022-12-08T12:40:50.925Z,9.15
2022-12-08T12:44:08.528Z,10.63
2022-12-08T12:47:18.218Z,9.30
2022-12-08T12:50:50.476Z,9.67
2022-12-08T12:53:53.571Z,9.30
2022-12-08T12:57:08.660Z,9.48
2022-12-08T13:00:25.093Z,10.73
2022-12-08T13:03:28.466Z,10.32
2022-12-08T13:06:43.863Z,10.10
2022-12-08T13:09:59.141Z,9.77
2022-12-08T13:13:10.402Z,10.10
2022-12-08T13:16:22.699Z,9.63
2022-12-08T13:19:26.794Z,9.25
2022-12-08T13:22:50.456Z,8.23
2022-12-08T13:26:08.390Z,10.85
2022-12-08T13:29:25.952Z,9.60
2022-12-08T13:33:19.698Z,9.95
2022-12-08T13:36:26.175Z,10.30
2022-12-08T13:39:55.103Z,10.90
2022-12-08T13:43:15.423Z,10.38
2022-12-08T13:57:48.169Z,10.80
2022-12-08T14:01:10.172Z,10.57
2022-12-08T14:04:47.886Z,10.88
2022-12-08T14:07:51.271Z,10.63
2022-12-08T14:11:02.741Z,10.43
2022-12-08T14:14:45.849Z,10.23
2022-12-08T14:17:52.381Z,10.27
2022-12-08T14:21:20.897Z,12.48
2022-12-08T14:24:26.797Z,10.35
2022-12-08T14:27:34.977Z,11.23
2022-12-08T14:30:39.680Z,10.03
2022-12-08T14:33:42.654Z,12.15
2022-12-08T14:36:44.905Z,12.20
2022-12-08T14:39:47.674Z,12.25
2022-12-08T14:43:15.415Z,11.15
2022-12-08T14:46:25.931Z,10.77
2022-12-08T14:49:36.297Z,10.70
2022-12-08T14:52:47.343Z,11.65
2022-12-08T14:55:50.020Z,11.43
2022-12-08T14:59:13.059Z,11.10
2022-12-08T15:02:15.592Z,11.07
2022-12-08T15:05:45.363Z,10.48
2022-12-08T15:09:16.306Z,11.25
2022-12-08T15:12:33.301Z,11.82
2022-12-08T15:15:55.564Z,10.27
2022-12-08T15:19:29.759Z,11.20
2022-12-08T15:22:34.667Z,13.07
2022-12-08T15:26:07.002Z,10.05
2022-12-08T15:29:26.241Z,10.10
2022-12-08T15:32:30.604Z,13.43
2022-12-08T15:35:37.353Z,12.83
2022-12-08T15:38:43.806Z,13.15
2022-12-08T15:41:46.632Z,12.60
2022-12-08T15:44:48.837Z,11.75
2022-12-08T15:47:50.887Z,14.32
2022-12-08T15:50:54.207Z,11.40
2022-12-08T15:54:00.189Z,11.85
2022-12-08T15:57:19.219Z,13.63
2022-12-08T16:07:30.791Z,12.13
2022-12-08T16:11:08.440Z,12.75
2022-12-08T16:13:58.438Z,11.93
2022-12-08T16:17:05.340Z,12.80
2022-12-08T16:20:12.570Z,12.75
2022-12-08T16:23:41.083Z,12.97
2022-12-08T16:30:09.005Z,13.23
2022-12-08T16:33:12.563Z,13.15
2022-12-08T16:36:16.333Z,12.63
2022-12-08T16:39:18.408Z,12.87
2022-12-08T16:42:44.849Z,13.23
2022-12-08T16:45:48.328Z,11.50
2022-12-08T16:48:53.445Z,12.52
2022-12-08T16:52:04.987Z,11.30
2022-12-08T16:55:15.249Z,10.97
2022-12-08T16:58:26.820Z,12.13
2022-12-08T17:01:29.537Z,10.73
2022-12-08T17:04:32.571Z,11.50
2022-12-08T17:07:37.057Z,11.57
2022-12-08T17:10:41.780Z,10.77
2022-12-08T17:13:47.162Z,11.15
2022-12-08T17:16:49.458Z,11.73
2022-12-08T17:19:53.743Z,11.40
2022-12-08T17:22:59.494Z,9.98
2022-12-08T17:26:06.272Z,11.17
2022-12-08T17:29:11.085Z,12.73
2022-12-08T17:32:14.525Z,13.48
2022-12-08T17:35:17.037Z,11.77
2022-12-08T17:38:22.255Z,11.68
2022-12-08T17:41:25.417Z,9.63
2022-12-08T17:44:28.385Z,10.70
2022-12-08T17:47:30.656Z,11.15
2022-12-08T17:50:33.735Z,10.70
2022-12-08T17:53:37.496Z,11.98
2022-12-08T17:56:42.234Z,12.07
2022-12-08T17:59:49.206Z,10.93
2022-12-08T18:02:52.551Z,12.32
2022-12-08T18:05:57.196Z,10.80
2022-12-08T18:09:00.878Z,9.82
2022-12-08T18:12:04.390Z,10.90
2022-12-08T18:15:12.041Z,10.57
2022-12-08T18:18:15.474Z,11.07
2022-12-08T18:21:23.553Z,10.50
2022-12-08T18:24:25.881Z,11.10
2022-12-08T18:27:27.804Z,12.97
2022-12-08T18:30:30.667Z,10.70
2022-12-08T18:33:33.254Z,11.45
2022-12-08T18:36:37.047Z,11.73
2022-12-08T18:39:39.447Z,12.27
2022-12-08T18:42:42.922Z,12.33
2022-12-08T18:45:45.613Z,10.88
2022-12-08T18:48:50.207Z,11.73
2022-12-08T18:51:53.476Z,11.45
2022-12-08T18:55:07.513Z,9.68
2022-12-08T18:58:12.112Z,11.30
2022-12-08T19:01:15.816Z,11.15
2022-12-08T19:04:38.553Z,10.52
2022-12-08T19:07:43.759Z,11.48
2022-12-08T19:10:45.903Z,10.13
2022-12-08T19:13:49.991Z,9.40
2022-12-08T19:16:53.079Z,10.25
2022-12-08T19:19:55.491Z,10.18
2022-12-08T19:22:58.508Z,9.57
2022-12-08T19:26:01.541Z,9.30
2022-12-08T19:29:03.898Z,11.23
2022-12-08T19:32:08.142Z,11.18
2022-12-08T19:35:10.291Z,10.23
2022-12-08T19:38:13.127Z,10.27
2022-12-08T19:41:34.560Z,11.50
2022-12-08T19:44:55.501Z,10.77
2022-12-08T19:47:57.695Z,10.05
2022-12-08T19:51:00.568Z,11.93
2022-12-08T19:54:02.712Z,11.32
2022-12-08T19:57:04.728Z,12.00
2022-12-08T20:00:10.328Z,11.23
2022-12-08T20:03:22.664Z,11.55
2022-12-08T20:06:26.688Z,12.90
2022-12-08T20:09:29.029Z,13.20
2022-12-08T20:12:31.569Z,12.52
2022-12-08T20:15:33.840Z,12.90
2022-12-08T20:18:39.064Z,12.75
2022-12-08T20:21:41.499Z,13.25
2022-12-08T20:24:43.480Z,12.52
2022-12-08T20:27:45.956Z,14.02
2022-12-08T20:30:49.615Z,12.73
2022-12-08T20:33:52.595Z,13.23
2022-12-08T20:36:55.006Z,12.57
2022-12-08T20:39:57.327Z,13.68
2022-12-08T20:42:59.984Z,12.38
2022-12-08T20:46:10.539Z,12.97
2022-12-08T20:49:13.430Z,13.48
2022-12-08T20:52:18.479Z,13.07
2022-12-08T20:55:20.662Z,13.63
2022-12-08T20:58:24.656Z,12.90
2022-12-08T21:01:27.421Z,13.57
2022-12-08T21:04:29.880Z,13.23
2022-12-08T21:07:34.272Z,14.05
2022-12-08T21:10:42.206Z,14.00
2022-12-08T21:13:46.952Z,13.45
2022-12-08T21:16:54.604Z,14.10
2022-12-08T21:19:58.236Z,15.20
2022-12-08T21:23:00.932Z,14.80
2022-12-08T21:26:03.534Z,14.52
2022-12-08T21:29:07.196Z,15.07
2022-12-08T21:32:09.380Z,15.40
2022-12-08T21:35:11.802Z,15.05
2022-12-08T21:38:14.058Z,15.20
2022-12-08T21:41:38.810Z,15.75
2022-12-08T21:44:40.876Z,14.82
2022-12-08T21:47:44.218Z,15.53
2022-12-08T21:50:47.234Z,16.13
2022-12-08T21:53:49.328Z,16.88
2022-12-08T21:56:51.677Z,16.85
2022-12-08T21:59:53.764Z,16.75
2022-12-08T22:02:56.447Z,14.80
2022-12-08T22:05:58.868Z,15.45
2022-12-08T22:09:07.235Z,16.50
2022-12-08T22:12:11.848Z,14.88
2022-12-08T22:15:14.827Z,16.60
2022-12-08T22:18:17.294Z,17.47
2022-12-08T22:21:19.563Z,17.17
2022-12-08T22:24:21.759Z,16.83
2022-12-08T22:27:23.734Z,17.23
2022-12-08T22:30:25.881Z,20.00
2022-12-08T22:33:31.874Z,17.77
2022-12-08T22:36:34.383Z,17.05
2022-12-08T22:39:36.545Z,17.05
2022-12-08T22:42:38.653Z,16.00
2022-12-08T22:45:41.116Z,16.98
2022-12-08T22:48:44.483Z,16.03
2022-12-08T22:51:46.875Z,16.88
2022-12-08T22:54:48.893Z,17.50
2022-12-08T22:57:50.910Z,18.38
2022-12-08T23:00:52.923Z,18.25
2022-12-08T23:03:55.749Z,17.10
2022-12-08T23:06:58.042Z,16.95
2022-12-08T23:10:00.361Z,17.83
2022-12-08T23:13:04.180Z,18.67
2022-12-08T23:16:08.990Z,18.23
2022-12-08T23:19:11.075Z,17.47
2022-12-08T23:22:13.156Z,18.17
2022-12-08T23:25:15.251Z,18.08
2022-12-08T23:28:17.339Z,18.73
2022-12-08T23:31:20.462Z,19.42
2022-12-08T23:34:22.678Z,18.83
2022-12-08T23:37:25.083Z,17.67
2022-12-08T23:40:28.525Z,20.00
2022-12-08T23:43:30.908Z,20.50
2022-12-08T23:46:33.069Z,19.25
2022-12-08T23:49:36.617Z,18.03
2022-12-08T23:52:40.271Z,18.42
2022-12-08T23:55:42.949Z,18.23
2022-12-08T23:58:45.974Z,20.27
